Time;durP1;ratioP1;P1;durP2;ratioP2;P2;SDS_P1;SDS_P2;PMS_P1;PMS_P2;Temp;Humidity;BMP_temperature;BMP_pressure;BME280_temperature;BME280_humidity;BME280_pressure;Samples;Min_cycle;Max_cycle;Signal;HPM_P1;HPM_P2
2022/04/20 00:00:17;;;;;;;10.40;9.57;;;;;;;;;;5086946;28;24393;-50
2022/04/20 00:02:42;;;;;;;10.50;9.60;;;;;;;;;;5086433;28;24442;-51
2022/04/20 00:05:07;;;;;;;10.68;9.77;;;;;;;;;;5086696;28;24389;-50
2022/04/20 00:07:33;;;;;;;10.48;9.57;;;;;;;;;;5086043;28;25289;-50
2022/04/20 00:09:59;;;;;;;10.05;9.20;;;;;;;;;;5086295;28;24413;-50
2022/04/20 00:12:24;;;;;;;10.63;9.73;;;;;;;;;;5086640;28;24401;-50
2022/04/20 00:14:49;;;;;;;9.80;9.00;;;;;;;;;;5086467;28;24390;-50
2022/04/20 00:17:15;;;;;;;10.18;9.38;;;;;;;;;;5086353;28;25120;-50
2022/04/20 00:19:40;;;;;;;10.10;9.30;;;;;;;;;;5088242;28;24386;-50
2022/04/20 00:22:05;;;;;;;10.40;9.50;;;;;;;;;;5090326;28;24477;-50
2022/04/20 00:24:30;;;;;;;10.17;9.27;;;;;;;;;;5090642;28;24632;-50
2022/04/20 00:26:55;;;;;;;10.73;9.63;;;;;;;;;;5090251;28;24413;-50
2022/04/20 00:29:20;;;;;;;10.60;9.60;;;;;;;;;;5090198;28;25128;-49
2022/04/20 00:31:46;;;;;;;10.32;9.45;;;;;;;;;;5089756;28;24414;-49
2022/04/20 00:34:11;;;;;;;10.50;9.50;;;;;;;;;;5090408;28;24406;-50
2022/04/20 00:36:36;;;;;;;11.20;10.30;;;;;;;;;;5090268;28;24706;-50
2022/04/20 00:39:01;;;;;;;10.73;9.83;;;;;;;;;;5089958;28;24390;-50
2022/04/20 00:41:27;;;;;;;9.80;9.00;;;;;;;;;;5090353;28;24393;-50
2022/04/20 00:43:52;;;;;;;11.20;10.20;;;;;;;;;;5089960;28;24794;-50
2022/04/20 00:46:19;;;;;;;10.10;9.30;;;;;;;;;;5090284;28;24456;-50
2022/04/20 00:48:45;;;;;;;10.80;9.90;;;;;;;;;;5089839;28;24402;-50
2022/04/20 00:51:10;;;;;;;9.82;9.02;;;;;;;;;;5089780;28;24476;-50
2022/04/20 00:53:35;;;;;;;9.43;8.63;;;;;;;;;;5090158;28;24394;-50
2022/04/20 00:56:00;;;;;;;9.63;8.82;;;;;;;;;;5089894;28;24391;-49
2022/04/20 00:58:26;;;;;;;10.30;9.40;;;;;;;;;;5089781;28;24490;-50
2022/04/20 01:00:51;;;;;;;9.63;8.73;;;;;;;;;;5089794;28;24385;-49
2022/04/20 01:03:16;;;;;;;9.95;9.05;;;;;;;;;;5089616;28;24440;-50
2022/04/20 01:05:41;;;;;;;9.80;9.00;;;;;;;;;;5089826;28;25190;-50
2022/04/20 01:08:06;;;;;;;9.25;8.45;;;;;;;;;;5089241;28;24493;-51
2022/04/20 01:10:32;;;;;;;9.60;8.80;;;;;;;;;;5089879;28;24433;-50
2022/04/20 01:12:57;;;;;;;10.10;9.30;;;;;;;;;;5089312;28;24477;-50
2022/04/20 01:15:22;;;;;;;9.90;9.10;;;;;;;;;;5089734;28;24926;-50
2022/04/20 01:17:48;;;;;;;9.83;8.93;;;;;;;;;;5089318;28;24430;-50
2022/04/20 01:20:13;;;;;;;9.70;8.80;;;;;;;;;;5089563;28;24456;-49
2022/04/20 01:22:39;;;;;;;9.90;9.10;;;;;;;;;;5089227;28;24447;-50
2022/04/20 01:25:04;;;;;;;10.73;9.82;;;;;;;;;;5088501;28;24390;-51
2022/04/20 01:27:30;;;;;;;10.23;9.33;;;;;;;;;;5069066;28;24383;-50
2022/04/20 01:29:55;;;;;;;9.50;8.70;;;;;;;;;;5068432;28;24785;-51
2022/04/20 01:32:20;;;;;;;9.70;9.00;;;;;;;;;;5068004;28;25223;-51
2022/04/20 01:34:45;;;;;;;10.10;9.30;;;;;;;;;;5068743;28;24387;-52
2022/04/20 01:37:10;;;;;;;9.60;8.80;;;;;;;;;;5068491;28;24637;-49
2022/04/20 01:39:35;;;;;;;9.50;8.70;;;;;;;;;;5068403;28;24391;-49
2022/04/20 01:42:01;;;;;;;9.20;8.50;;;;;;;;;;5068694;28;24390;-49
2022/04/20 01:44:26;;;;;;;9.80;8.90;;;;;;;;;;5068713;28;24509;-49
2022/04/20 01:46:51;;;;;;;9.00;8.23;;;;;;;;;;5068791;28;25039;-49
2022/04/20 01:49:16;;;;;;;9.40;8.60;;;;;;;;;;5068160;28;24399;-50
2022/04/20 01:51:50;;;;;;;9.63;8.83;;;;;;;;;;5068483;28;24419;-51
2022/04/20 01:54:15;;;;;;;9.30;8.60;;;;;;;;;;5068103;28;24917;-51
2022/04/20 01:56:40;;;;;;;9.80;8.90;;;;;;;;;;5068597;28;24486;-51
2022/04/20 01:59:06;;;;;;;9.60;8.80;;;;;;;;;;5068291;28;24383;-50
2022/04/20 02:04:14;;;;;;;8.60;7.90;;;;;;;;;;5067652;28;24932;-51
2022/04/20 02:06:40;;;;;;;9.00;8.30;;;;;;;;;;5068309;28;24390;-50
2022/04/20 02:09:05;;;;;;;8.10;7.50;;;;;;;;;;5067921;28;24395;-50
2022/04/20 02:11:30;;;;;;;9.00;8.30;;;;;;;;;;5068106;28;24422;-50
2022/04/20 02:13:55;;;;;;;8.90;8.20;;;;;;;;;;5067915;28;24397;-50
2022/04/20 02:16:21;;;;;;;9.20;8.30;;;;;;;;;;5068073;28;24951;-50
2022/04/20 02:18:46;;;;;;;8.80;8.10;;;;;;;;;;5067461;28;24379;-50
2022/04/20 02:21:11;;;;;;;9.27;8.47;;;;;;;;;;5067930;28;24468;-50
2022/04/20 02:23:36;;;;;;;9.70;8.90;;;;;;;;;;5067860;28;24429;-50
2022/04/20 02:26:02;;;;;;;9.50;8.70;;;;;;;;;;5076715;28;24410;-49
2022/04/20 02:28:27;;;;;;;9.37;8.57;;;;;;;;;;5088247;28;24467;-50
2022/04/20 02:30:52;;;;;;;10.00;9.10;;;;;;;;;;5088143;28;24421;-50
2022/04/20 02:33:18;;;;;;;9.10;8.40;;;;;;;;;;5087701;28;24394;-50
2022/04/20 02:35:43;;;;;;;10.10;9.30;;;;;;;;;;5087994;28;24573;-50
2022/04/20 02:38:11;;;;;;;9.93;9.13;;;;;;;;;;5087676;28;24490;-50
2022/04/20 02:40:37;;;;;;;9.00;8.20;;;;;;;;;;5088119;28;24405;-50
2022/04/20 02:43:03;;;;;;;9.50;8.70;;;;;;;;;;5087245;28;24391;-50
2022/04/20 02:45:28;;;;;;;9.60;8.70;;;;;;;;;;5088028;28;24451;-50
2022/04/20 02:47:53;;;;;;;9.80;8.80;;;;;;;;;;5087833;28;24544;-50
2022/04/20 02:50:18;;;;;;;10.00;9.00;;;;;;;;;;5087341;28;24395;-50
2022/04/20 02:52:44;;;;;;;9.75;8.85;;;;;;;;;;5087783;28;24733;-50
2022/04/20 02:55:09;;;;;;;9.13;8.32;;;;;;;;;;5087854;28;24871;-50
2022/04/20 02:57:34;;;;;;;9.75;8.93;;;;;;;;;;5087929;28;24463;-51
2022/04/20 02:59:59;;;;;;;9.50;8.60;;;;;;;;;;5087248;28;24428;-50
2022/04/20 03:02:24;;;;;;;9.93;9.02;;;;;;;;;;5087269;28;24947;-50
2022/04/20 03:04:49;;;;;;;9.90;9.10;;;;;;;;;;5087335;28;24487;-50
2022/04/20 03:07:14;;;;;;;10.10;9.30;;;;;;;;;;5087295;28;24394;-50
2022/04/20 03:09:40;;;;;;;9.70;8.90;;;;;;;;;;5087163;28;24386;-50
2022/04/20 03:12:05;;;;;;;9.77;8.98;;;;;;;;;;5087191;28;24514;-51
2022/04/20 03:14:30;;;;;;;9.10;8.30;;;;;;;;;;5087426;28;24390;-51
2022/04/20 03:16:55;;;;;;;9.32;8.50;;;;;;;;;;5087053;28;24856;-51
2022/04/20 03:19:20;;;;;;;9.27;8.48;;;;;;;;;;5086711;28;24812;-51
2022/04/20 03:21:46;;;;;;;9.43;8.63;;;;;;;;;;5087332;28;24386;-51
2022/04/20 03:24:11;;;;;;;9.30;8.50;;;;;;;;;;5087115;28;24410;-51
2022/04/20 03:26:36;;;;;;;9.45;8.65;;;;;;;;;;5073530;28;24447;-51
2022/04/20 03:29:01;;;;;;;9.57;8.68;;;;;;;;;;5066596;28;24426;-51
2022/04/20 03:31:26;;;;;;;9.80;9.00;;;;;;;;;;5066868;28;24765;-54
2022/04/20 03:33:52;;;;;;;8.80;8.10;;;;;;;;;;5066176;28;24494;-51
2022/04/20 03:36:17;;;;;;;9.90;9.00;;;;;;;;;;5066865;28;24407;-51
2022/04/20 03:38:42;;;;;;;9.80;9.00;;;;;;;;;;5066695;28;24399;-50
2022/04/20 03:41:07;;;;;;;9.57;8.77;;;;;;;;;;5066997;28;24395;-50
2022/04/20 03:43:32;;;;;;;9.90;9.10;;;;;;;;;;5066546;28;24402;-50
2022/04/20 03:45:58;;;;;;;9.17;8.47;;;;;;;;;;5066927;28;25002;-51
2022/04/20 03:48:23;;;;;;;10.00;9.10;;;;;;;;;;5066154;28;24932;-49
2022/04/20 03:50:48;;;;;;;9.80;9.00;;;;;;;;;;5066403;28;24415;-50
2022/04/20 03:53:13;;;;;;;9.80;9.00;;;;;;;;;;5066123;28;24436;-50
2022/04/20 03:55:39;;;;;;;9.80;9.00;;;;;;;;;;5066206;28;24525;-50
2022/04/20 03:58:05;;;;;;;9.40;8.60;;;;;;;;;;5066589;28;24754;-50
2022/04/20 04:00:31;;;;;;;9.43;8.63;;;;;;;;;;5066679;28;24921;-50
2022/04/20 04:02:56;;;;;;;9.88;9.00;;;;;;;;;;5066112;28;24464;-50
2022/04/20 04:05:21;;;;;;;9.50;8.80;;;;;;;;;;5066240;28;24905;-50
2022/04/20 04:07:46;;;;;;;9.47;8.67;;;;;;;;;;5066457;28;24433;-49
2022/04/20 04:10:11;;;;;;;10.10;9.10;;;;;;;;;;5065773;28;24399;-50
2022/04/20 04:12:37;;;;;;;10.00;9.02;;;;;;;;;;5066139;28;24405;-49
2022/04/20 04:15:02;;;;;;;10.13;9.18;;;;;;;;;;5066189;28;24411;-50
2022/04/20 04:17:28;;;;;;;9.50;8.70;;;;;;;;;;5065916;28;24398;-49
2022/04/20 04:19:53;;;;;;;9.07;8.37;;;;;;;;;;5065854;28;25037;-50
2022/04/20 04:22:18;;;;;;;10.30;9.40;;;;;;;;;;5066170;28;25008;-50
2022/04/20 04:24:43;;;;;;;9.77;8.90;;;;;;;;;;5066295;28;24528;-50
2022/04/20 04:27:09;;;;;;;9.60;8.80;;;;;;;;;;5084170;28;24990;-50
2022/04/20 04:29:35;;;;;;;9.90;9.10;;;;;;;;;;5086031;28;24533;-50
2022/04/20 04:32:01;;;;;;;9.80;8.90;;;;;;;;;;5086087;28;24544;-50
2022/04/20 04:34:26;;;;;;;11.30;10.20;;;;;;;;;;5085929;28;24802;-50
2022/04/20 04:36:53;;;;;;;10.20;9.30;;;;;;;;;;5086475;28;24478;-50
2022/04/20 04:39:21;;;;;;;10.20;9.07;;;;;;;;;;5085827;28;24413;-50
2022/04/20 04:41:46;;;;;;;11.13;10.02;;;;;;;;;;5086708;28;24422;-50
2022/04/20 04:44:11;;;;;;;11.00;10.10;;;;;;;;;;5086357;28;24441;-50
2022/04/20 04:49:20;;;;;;;11.93;10.20;;;;;;;;;;5086059;28;24436;-51
2022/04/20 04:51:45;;;;;;;11.40;10.40;;;;;;;;;;5086050;28;24410;-49
2022/04/20 04:54:11;;;;;;;11.10;10.07;;;;;;;;;;5086464;28;24438;-50
2022/04/20 04:56:36;;;;;;;11.10;10.05;;;;;;;;;;5086271;28;24390;-50
2022/04/20 04:59:01;;;;;;;10.80;9.70;;;;;;;;;;5085926;28;24458;-50
2022/04/20 05:01:26;;;;;;;11.70;10.70;;;;;;;;;;5086138;28;24935;-50
2022/04/20 05:03:53;;;;;;;11.13;10.13;;;;;;;;;;5085822;28;24408;-50
2022/04/20 05:06:19;;;;;;;10.60;9.70;;;;;;;;;;5087176;28;24386;-50
2022/04/20 05:08:44;;;;;;;11.50;10.30;;;;;;;;;;5090111;28;24391;-51
2022/04/20 05:11:09;;;;;;;11.60;10.50;;;;;;;;;;5089269;28;24432;-50
2022/04/20 05:13:34;;;;;;;10.90;9.90;;;;;;;;;;5089652;28;24391;-50
2022/04/20 05:15:59;;;;;;;11.00;10.00;;;;;;;;;;5089625;28;24386;-51
2022/04/20 05:18:24;;;;;;;11.38;10.27;;;;;;;;;;5089620;28;24401;-51
2022/04/20 05:20:49;;;;;;;10.80;9.80;;;;;;;;;;5089189;28;24394;-49
2022/04/20 05:23:15;;;;;;;11.73;10.53;;;;;;;;;;5089473;28;24489;-50
2022/04/20 05:25:40;;;;;;;11.65;10.45;;;;;;;;;;5077406;28;24453;-49
2022/04/20 05:28:06;;;;;;;13.17;11.17;;;;;;;;;;5068746;28;24494;-50
2022/04/20 05:30:31;;;;;;;11.82;10.63;;;;;;;;;;5068582;28;24494;-50
2022/04/20 05:32:56;;;;;;;11.80;10.70;;;;;;;;;;5068788;28;24387;-51
2022/04/20 05:35:21;;;;;;;12.02;10.88;;;;;;;;;;5068841;28;24496;-50
2022/04/20 05:43:14;;;;;;;11.60;10.50;;;;;;;;;;5068588;28;24453;-50
2022/04/20 05:45:39;;;;;;;11.55;10.52;;;;;;;;;;5068803;28;24766;-50
2022/04/20 05:48:04;;;;;;;11.35;10.15;;;;;;;;;;5068653;28;24379;-51
2022/04/20 05:50:30;;;;;;;12.00;10.90;;;;;;;;;;5068198;28;24434;-50
2022/04/20 05:52:55;;;;;;;11.60;10.50;;;;;;;;;;5068560;28;24513;-51
2022/04/20 05:55:20;;;;;;;11.82;10.65;;;;;;;;;;5068352;28;24394;-51
2022/04/20 05:57:47;;;;;;;11.90;10.80;;;;;;;;;;5068298;28;24884;-51
2022/04/20 06:00:13;;;;;;;10.98;9.85;;;;;;;;;;5068170;28;24437;-51
2022/04/20 06:02:38;;;;;;;10.65;9.75;;;;;;;;;;5068438;28;24452;-51
2022/04/20 06:05:03;;;;;;;10.60;9.70;;;;;;;;;;5068403;28;24466;-51
2022/04/20 06:07:29;;;;;;;11.35;10.15;;;;;;;;;;5068331;28;24382;-50
2022/04/20 06:09:54;;;;;;;10.55;9.55;;;;;;;;;;5068093;28;24402;-50
2022/04/20 06:12:22;;;;;;;10.50;9.40;;;;;;;;;;5067796;28;24510;-50
2022/04/20 06:14:48;;;;;;;10.45;9.45;;;;;;;;;;5068050;28;24409;-51
2022/04/20 06:17:13;;;;;;;11.60;10.50;;;;;;;;;;5067933;28;24443;-51
2022/04/20 06:19:38;;;;;;;10.67;9.77;;;;;;;;;;5067864;28;24436;-51
2022/04/20 06:22:03;;;;;;;11.20;10.10;;;;;;;;;;5068265;28;24944;-51
2022/04/20 06:24:29;;;;;;;11.27;10.27;;;;;;;;;;5069898;28;24452;-51
2022/04/20 06:26:54;;;;;;;10.55;9.65;;;;;;;;;;5087953;28;24406;-51
2022/04/20 06:29:19;;;;;;;10.32;9.43;;;;;;;;;;5088019;28;24811;-51
2022/04/20 06:31:45;;;;;;;11.30;10.20;;;;;;;;;;5087888;28;24438;-51
2022/04/20 06:34:10;;;;;;;10.17;9.37;;;;;;;;;;5087728;28;24465;-51
2022/04/20 06:36:35;;;;;;;10.68;9.77;;;;;;;;;;5087867;28;24390;-50
2022/04/20 06:39:01;;;;;;;10.70;9.80;;;;;;;;;;5087781;28;24560;-51
2022/04/20 06:41:26;;;;;;;10.90;9.90;;;;;;;;;;5087442;28;24394;-51
2022/04/20 06:43:51;;;;;;;11.90;10.70;;;;;;;;;;5088078;28;24424;-50
2022/04/20 06:46:16;;;;;;;12.30;11.10;;;;;;;;;;5087835;28;24485;-50
2022/04/20 06:48:41;;;;;;;10.80;9.80;;;;;;;;;;5087645;28;24951;-54
2022/04/20 06:51:06;;;;;;;11.20;10.10;;;;;;;;;;5087433;28;24418;-50
2022/04/20 06:58:31;;;;;;;11.25;10.25;;;;;;;;;;5087298;28;24436;-50
2022/04/20 06:59:13;;;;;;;11.30;10.20;;;;;;;;;;5087699;28;24452;-49
2022/04/20 07:01:38;;;;;;;10.93;10.00;;;;;;;;;;5087390;28;24436;-50
2022/04/20 07:04:03;;;;;;;10.80;9.90;;;;;;;;;;5087314;28;24386;-49
2022/04/20 07:06:28;;;;;;;11.20;10.20;;;;;;;;;;5087237;28;24615;-50
2022/04/20 07:08:54;;;;;;;10.48;9.57;;;;;;;;;;5087445;28;24394;-50
2022/04/20 07:11:19;;;;;;;10.93;10.03;;;;;;;;;;5087002;28;24509;-50
2022/04/20 07:13:46;;;;;;;12.20;11.10;;;;;;;;;;5087310;28;24927;-50
2022/04/20 07:16:11;;;;;;;11.30;10.30;;;;;;;;;;5087622;28;24453;-49
2022/04/20 07:18:36;;;;;;;10.90;10.00;;;;;;;;;;5086833;28;25111;-50
2022/04/20 07:21:03;;;;;;;11.50;10.50;;;;;;;;;;5086596;28;24746;-50
2022/04/20 07:23:28;;;;;;;11.97;10.87;;;;;;;;;;5087464;28;24576;-49
2022/04/20 07:25:53;;;;;;;11.32;10.23;;;;;;;;;;5073293;28;25001;-50
2022/04/20 07:28:18;;;;;;;10.77;9.87;;;;;;;;;;5066077;28;24426;-50
2022/04/20 07:30:44;;;;;;;12.27;11.18;;;;;;;;;;5066435;28;24407;-50
2022/04/20 07:33:09;;;;;;;11.63;10.53;;;;;;;;;;5066536;28;24491;-50
2022/04/20 07:35:34;;;;;;;11.37;10.37;;;;;;;;;;5066545;28;24402;-51
2022/04/20 07:37:59;;;;;;;11.67;10.30;;;;;;;;;;5066647;28;24540;-51
2022/04/20 07:40:24;;;;;;;12.20;11.00;;;;;;;;;;5066378;28;24940;-51
2022/04/20 07:42:56;;;;;;;11.35;10.25;;;;;;;;;;5066724;28;25002;-51
2022/04/20 07:45:25;;;;;;;11.60;10.63;;;;;;;;;;5066474;28;24937;-50
2022/04/20 07:47:50;;;;;;;11.68;10.57;;;;;;;;;;5066915;28;24398;-50
2022/04/20 07:50:18;;;;;;;12.00;10.90;;;;;;;;;;5066601;28;24387;-51
2022/04/20 07:52:45;;;;;;;11.70;10.70;;;;;;;;;;5066365;28;24394;-51
2022/04/20 07:55:14;;;;;;;12.40;11.30;;;;;;;;;;5066700;28;24820;-50
2022/04/20 07:57:42;;;;;;;12.70;11.60;;;;;;;;;;5066781;28;24427;-51
2022/04/20 08:00:08;;;;;;;11.60;10.50;;;;;;;;;;5066896;28;24398;-50
2022/04/20 08:02:33;;;;;;;12.77;11.77;;;;;;;;;;5065837;28;24403;-51
2022/04/20 08:04:59;;;;;;;12.90;11.80;;;;;;;;;;5066049;28;24484;-51
2022/04/20 08:07:24;;;;;;;12.10;11.10;;;;;;;;;;5066623;28;24398;-51
2022/04/20 08:09:49;;;;;;;14.20;12.90;;;;;;;;;;5066655;28;24406;-50
2022/04/20 08:12:14;;;;;;;13.18;11.77;;;;;;;;;;5066413;28;24475;-51
2022/04/20 08:14:39;;;;;;;12.70;11.60;;;;;;;;;;5066589;28;24412;-50
2022/04/20 08:17:05;;;;;;;13.23;12.02;;;;;;;;;;5066427;28;24760;-50
2022/04/20 08:19:30;;;;;;;12.80;11.70;;;;;;;;;;5066114;28;24860;-51
2022/04/20 08:21:55;;;;;;;13.00;11.80;;;;;;;;;;5066271;28;24398;-50
2022/04/20 08:24:20;;;;;;;12.07;11.00;;;;;;;;;;5067050;28;24472;-51
2022/04/20 08:26:45;;;;;;;12.00;10.90;;;;;;;;;;5086861;28;24456;-51
2022/04/20 08:29:11;;;;;;;13.65;12.43;;;;;;;;;;5086511;28;24966;-51
2022/04/20 08:31:37;;;;;;;13.30;12.10;;;;;;;;;;5086148;28;24457;-57
2022/04/20 08:34:02;;;;;;;12.40;11.40;;;;;;;;;;5086517;28;24478;-50
2022/04/20 08:36:28;;;;;;;12.53;11.43;;;;;;;;;;5086326;28;25057;-51
2022/04/20 08:38:53;;;;;;;12.52;11.50;;;;;;;;;;5086569;28;24398;-51
2022/04/20 08:41:18;;;;;;;13.60;12.40;;;;;;;;;;5089405;28;24383;-51
2022/04/20 08:43:43;;;;;;;12.50;11.43;;;;;;;;;;5090197;28;24946;-51
2022/04/20 08:46:10;;;;;;;13.30;12.13;;;;;;;;;;5090326;28;24433;-51
2022/04/20 08:48:35;;;;;;;13.27;12.07;;;;;;;;;;5089899;28;24999;-50
2022/04/20 08:51:02;;;;;;;13.90;12.60;;;;;;;;;;5090350;28;24509;-51
2022/04/20 08:53:28;;;;;;;14.13;11.40;;;;;;;;;;5090076;28;24383;-51
2022/04/20 08:57:15;;;;;;;13.73;12.53;;;;;;;;;;5090185;28;24444;-50
2022/04/20 08:58:39;;;;;;;12.70;11.60;;;;;;;;;;5089702;28;24550;-50
2022/04/20 09:01:04;;;;;;;12.65;11.55;;;;;;;;;;5089835;28;24933;-50
2022/04/20 09:03:30;;;;;;;11.93;10.82;;;;;;;;;;5089943;28;24819;-49
2022/04/20 09:05:56;;;;;;;11.70;10.60;;;;;;;;;;5089812;28;24452;-50
2022/04/20 09:08:25;;;;;;;13.70;12.40;;;;;;;;;;5090092;28;24455;-50
2022/04/20 09:10:51;;;;;;;13.90;12.70;;;;;;;;;;5089562;28;24509;-49
2022/04/20 09:13:16;;;;;;;12.95;11.65;;;;;;;;;;5089548;28;24927;-50
2022/04/20 09:15:41;;;;;;;11.83;10.73;;;;;;;;;;5089229;28;24405;-50
2022/04/20 09:18:07;;;;;;;12.40;11.30;;;;;;;;;;5089770;28;24394;-49
2022/04/20 09:20:34;;;;;;;13.30;12.20;;;;;;;;;;5089425;28;24882;-49
2022/04/20 09:23:02;;;;;;;12.23;11.13;;;;;;;;;;5089423;28;24966;-50
2022/04/20 09:25:30;;;;;;;12.45;11.25;;;;;;;;;;5079223;28;24410;-51
2022/04/20 09:27:55;;;;;;;13.90;12.70;;;;;;;;;;5069036;28;24395;-50
2022/04/20 09:30:21;;;;;;;12.50;11.20;;;;;;;;;;5069715;28;25043;-49
2022/04/20 09:32:47;;;;;;;13.15;12.00;;;;;;;;;;5068422;28;24422;-50
2022/04/20 09:35:20;;;;;;;14.38;13.13;;;;;;;;;;5069139;28;24750;-49
2022/04/20 09:37:45;;;;;;;13.43;12.23;;;;;;;;;;5069476;28;24387;-50
2022/04/20 09:40:11;;;;;;;11.60;10.67;;;;;;;;;;5069233;28;24456;-50
2022/04/20 09:42:37;;;;;;;13.85;12.65;;;;;;;;;;5068325;28;24594;-52
2022/04/20 09:45:04;;;;;;;12.33;11.13;;;;;;;;;;5069170;28;24817;-51
2022/04/20 09:50:23;;;;;;;12.48;11.38;;;;;;;;;;5068805;28;24414;-50
2022/04/20 09:52:49;;;;;;;12.30;11.20;;;;;;;;;;5067488;28;24850;-50
2022/04/20 09:55:30;;;;;;;12.95;11.75;;;;;;;;;;5068622;28;25030;-50
2022/04/20 09:58:31;;;;;;;12.90;11.60;;;;;;;;;;5068840;28;24375;-50
2022/04/20 10:00:56;;;;;;;12.23;11.13;;;;;;;;;;5006281;28;24471;-50
2022/04/20 10:03:22;;;;;;;11.50;10.50;;;;;;;;;;5055081;28;24411;-50
2022/04/20 10:05:47;;;;;;;12.10;11.00;;;;;;;;;;5067986;28;24777;-50
2022/04/20 10:08:12;;;;;;;13.40;11.77;;;;;;;;;;5068467;28;24489;-50
2022/04/20 10:10:37;;;;;;;12.53;11.33;;;;;;;;;;5068179;28;24413;-50
2022/04/20 10:13:03;;;;;;;11.70;10.60;;;;;;;;;;5068332;28;24436;-51
2022/04/20 10:18:16;;;;;;;12.07;10.98;;;;;;;;;;5068034;28;25085;-50
2022/04/20 10:20:45;;;;;;;11.53;10.50;;;;;;;;;;5068055;28;24449;-49
2022/04/20 10:23:10;;;;;;;11.80;10.80;;;;;;;;;;5067944;28;24390;-50
2022/04/20 10:25:36;;;;;;;10.30;9.30;;;;;;;;;;5079334;28;24410;-51
2022/04/20 10:28:12;;;;;;;9.90;9.10;;;;;;;;;;5087890;28;24441;-50
2022/04/20 10:30:44;;;;;;;10.10;9.20;;;;;;;;;;5087762;28;24386;-50
2022/04/20 10:33:13;;;;;;;9.80;8.90;;;;;;;;;;5088172;28;24437;-50
2022/04/20 10:35:57;;;;;;;10.10;9.20;;;;;;;;;;5087998;28;24526;-50
2022/04/20 10:38:23;;;;;;;11.15;10.15;;;;;;;;;;5088100;28;24937;-51
2022/04/20 10:40:59;;;;;;;11.73;10.60;;;;;;;;;;5087888;28;24402;-50
2022/04/20 10:43:25;;;;;;;10.27;9.48;;;;;;;;;;5088155;28;24477;-50
2022/04/20 10:46:11;;;;;;;11.00;10.00;;;;;;;;;;5087624;28;24488;-50
2022/04/20 10:49:07;;;;;;;12.68;11.40;;;;;;;;;;5087734;28;24493;-50
2022/04/20 10:51:37;;;;;;;10.30;9.40;;;;;;;;;;5087558;28;24827;-50
2022/04/20 10:54:17;;;;;;;11.15;10.15;;;;;;;;;;5103012;28;24444;-50
2022/04/20 10:57:00;;;;;;;10.18;9.20;;;;;;;;;;5087798;28;24390;-49
2022/04/20 10:59:25;;;;;;;10.98;9.98;;;;;;;;;;5087474;28;24382;-50
2022/04/20 11:02:02;;;;;;;9.95;8.95;;;;;;;;;;5087220;28;24467;-50
2022/04/20 11:04:30;;;;;;;10.52;9.60;;;;;;;;;;5087757;28;24388;-50
2022/04/20 11:06:58;;;;;;;10.88;9.77;;;;;;;;;;5087268;28;24394;-50
2022/04/20 11:09:41;;;;;;;11.02;9.93;;;;;;;;;;5087668;28;24413;-50
2022/04/20 11:20:56;;;;;;;10.50;9.50;;;;;;;;;;5087084;28;24489;-49
2022/04/20 11:23:41;;;;;;;12.02;10.82;;;;;;;;;;5087045;28;24386;-50
2022/04/20 11:26:10;;;;;;;12.05;10.95;;;;;;;;;;5071364;28;24445;-49
2022/04/20 11:28:39;;;;;;;11.87;10.87;;;;;;;;;;5066419;28;25415;-49
2022/04/20 11:31:04;;;;;;;11.15;10.25;;;;;;;;;;5067090;28;24429;-50
2022/04/20 11:33:32;;;;;;;11.77;10.68;;;;;;;;;;5064482;28;24423;-50
2022/04/20 11:35:57;;;;;;;12.00;11.00;;;;;;;;;;5066903;28;24391;-54
2022/04/20 11:38:34;;;;;;;11.90;10.80;;;;;;;;;;5067453;28;24948;-50
2022/04/20 11:40:59;;;;;;;12.70;11.68;;;;;;;;;;5066638;28;24452;-50
2022/04/20 11:43:27;;;;;;;13.50;12.30;;;;;;;;;;5066134;28;24395;-49
2022/04/20 11:45:53;;;;;;;13.20;12.10;;;;;;;;;;5066748;28;24387;-50
2022/04/20 11:48:20;;;;;;;13.60;12.50;;;;;;;;;;5066722;28;24410;-50
2022/04/20 11:50:53;;;;;;;12.07;10.98;;;;;;;;;;5066671;28;24917;-51
2022/04/20 11:53:18;;;;;;;11.23;10.25;;;;;;;;;;5066670;28;24920;-50
2022/04/20 11:55:46;;;;;;;11.65;10.65;;;;;;;;;;5066458;28;24390;-50
2022/04/20 11:58:13;;;;;;;11.73;10.73;;;;;;;;;;5066732;28;24491;-50
2022/04/20 12:00:38;;;;;;;12.73;11.63;;;;;;;;;;5066607;28;24473;-51
2022/04/20 12:03:03;;;;;;;10.80;9.90;;;;;;;;;;5066502;28;25200;-50
2022/04/20 12:05:28;;;;;;;12.38;11.38;;;;;;;;;;5066481;28;24403;-50
2022/04/20 12:07:53;;;;;;;11.95;10.90;;;;;;;;;;5066641;28;24391;-50
2022/04/20 12:10:18;;;;;;;11.20;10.30;;;;;;;;;;5066629;28;24845;-50
2022/04/20 12:12:44;;;;;;;12.18;11.20;;;;;;;;;;5065724;28;24430;-51
2022/04/20 12:15:09;;;;;;;12.30;11.20;;;;;;;;;;5068007;28;24394;-50
2022/04/20 12:17:34;;;;;;;11.63;10.63;;;;;;;;;;5070762;28;24379;-50
2022/04/20 12:20:00;;;;;;;12.10;10.90;;;;;;;;;;5070285;28;24805;-51
2022/04/20 12:22:25;;;;;;;12.07;11.07;;;;;;;;;;5070292;28;24383;-50
2022/04/20 12:25:06;;;;;;;11.95;10.85;;;;;;;;;;5075204;28;24943;-52
2022/04/20 12:27:47;;;;;;;12.40;11.30;;;;;;;;;;5090662;28;24391;-52
2022/04/20 12:30:13;;;;;;;12.60;11.40;;;;;;;;;;5090691;28;24421;-50
2022/04/20 12:32:40;;;;;;;11.90;10.90;;;;;;;;;;5090190;28;24444;-51
2022/04/20 12:35:05;;;;;;;11.80;10.70;;;;;;;;;;5090613;28;24947;-50
2022/04/20 12:37:31;;;;;;;13.55;12.45;;;;;;;;;;5090410;28;24394;-51
2022/04/20 12:40:16;;;;;;;12.77;11.67;;;;;;;;;;5090387;28;24383;-51
2022/04/20 12:42:56;;;;;;;11.10;10.20;;;;;;;;;;5089873;28;24433;-51
2022/04/20 12:45:22;;;;;;;12.70;11.70;;;;;;;;;;5090322;28;24406;-52
2022/04/20 12:47:47;;;;;;;11.77;10.77;;;;;;;;;;5090063;28;24385;-50
2022/04/20 12:50:14;;;;;;;12.20;11.00;;;;;;;;;;5090096;28;24394;-50
2022/04/20 12:52:47;;;;;;;12.47;11.37;;;;;;;;;;5089849;28;24426;-50
2022/04/20 12:55:16;;;;;;;12.55;11.55;;;;;;;;;;5090250;28;24869;-50
2022/04/20 13:03:23;;;;;;;13.35;11.95;;;;;;;;;;5089556;28;24749;-51
2022/04/20 13:05:49;;;;;;;13.52;12.23;;;;;;;;;;5090273;28;24398;-51
2022/04/20 13:08:14;;;;;;;13.40;12.00;;;;;;;;;;5090036;28;24397;-51
2022/04/20 13:10:43;;;;;;;13.23;12.03;;;;;;;;;;5089922;28;24947;-50
2022/04/20 13:13:10;;;;;;;12.35;11.20;;;;;;;;;;5089549;28;24388;-50
2022/04/20 13:15:35;;;;;;;13.73;12.50;;;;;;;;;;5090040;28;25435;-50
2022/04/20 13:18:01;;;;;;;13.50;12.20;;;;;;;;;;5089468;28;24924;-50
2022/04/20 13:20:27;;;;;;;11.77;10.80;;;;;;;;;;5089806;28;24401;-50
2022/04/20 13:22:52;;;;;;;12.25;11.25;;;;;;;;;;5089251;28;24899;-51
2022/04/20 13:28:01;;;;;;;12.57;11.40;;;;;;;;;;5068184;28;24483;-50
2022/04/20 13:30:29;;;;;;;12.95;11.85;;;;;;;;;;5069188;28;24979;-50
2022/04/20 13:32:55;;;;;;;12.98;11.88;;;;;;;;;;5069167;28;24798;-51
2022/04/20 13:35:20;;;;;;;11.85;10.80;;;;;;;;;;5069074;28;24390;-51
2022/04/20 13:37:45;;;;;;;13.50;12.30;;;;;;;;;;5069210;28;24387;-51
2022/04/20 13:40:11;;;;;;;14.35;13.00;;;;;;;;;;5068995;28;24980;-51
2022/04/20 13:42:36;;;;;;;13.90;12.60;;;;;;;;;;5069110;28;24409;-51
2022/04/20 13:45:02;;;;;;;13.00;11.80;;;;;;;;;;5068949;28;24997;-52
2022/04/20 13:47:27;;;;;;;13.43;12.23;;;;;;;;;;5069001;28;24394;-52
2022/04/20 13:49:52;;;;;;;14.18;12.88;;;;;;;;;;5069125;28;24921;-52
2022/04/20 13:52:18;;;;;;;13.60;12.50;;;;;;;;;;5068736;28;24427;-52
2022/04/20 13:54:43;;;;;;;13.70;12.50;;;;;;;;;;5068567;28;24419;-51
2022/04/20 13:57:08;;;;;;;13.30;12.20;;;;;;;;;;5068949;28;24955;-51
2022/04/20 13:59:33;;;;;;;14.23;12.85;;;;;;;;;;5069317;28;24436;-51
2022/04/20 14:01:59;;;;;;;13.10;12.00;;;;;;;;;;5068643;28;24822;-51
2022/04/20 14:04:25;;;;;;;13.98;12.77;;;;;;;;;;5068552;28;24399;-50
2022/04/20 14:06:50;;;;;;;12.30;11.20;;;;;;;;;;5068633;28;24409;-51
2022/04/20 14:09:15;;;;;;;12.70;11.60;;;;;;;;;;5068304;28;24394;-50
2022/04/20 14:11:41;;;;;;;11.95;10.93;;;;;;;;;;5068827;28;24422;-51
2022/04/20 14:14:06;;;;;;;14.17;12.87;;;;;;;;;;5067705;28;24393;-50
2022/04/20 14:16:31;;;;;;;12.83;11.83;;;;;;;;;;5066967;28;24679;-51
2022/04/20 14:18:57;;;;;;;12.40;11.40;;;;;;;;;;5068073;28;24788;-51
2022/04/20 14:21:22;;;;;;;13.27;12.18;;;;;;;;;;5068432;28;24865;-52
2022/04/20 14:23:47;;;;;;;12.57;11.50;;;;;;;;;;5070942;28;24435;-50
2022/04/20 14:34:24;;;;;;;12.02;10.93;;;;;;;;;;5088581;28;24445;-50
2022/04/20 14:36:49;;;;;;;11.70;10.70;;;;;;;;;;5088165;28;24407;-50
2022/04/20 14:39:14;;;;;;;12.57;11.48;;;;;;;;;;5087907;28;24389;-51
2022/04/20 14:41:40;;;;;;;12.07;10.80;;;;;;;;;;5087932;28;24409;-51
2022/04/20 14:44:05;;;;;;;10.45;9.55;;;;;;;;;;5087582;28;24966;-50
2022/04/20 14:46:30;;;;;;;10.80;9.90;;;;;;;;;;5088072;28;24395;-52
2022/04/20 14:48:56;;;;;;;10.70;9.80;;;;;;;;;;5087574;28;24395;-51
2022/04/20 14:51:22;;;;;;;9.55;8.75;;;;;;;;;;5088127;28;24818;-51
2022/04/20 14:53:49;;;;;;;9.10;8.40;;;;;;;;;;5087472;28;24395;-51
2022/04/20 14:56:14;;;;;;;9.50;8.60;;;;;;;;;;5087840;28;24382;-51
2022/04/20 14:58:39;;;;;;;8.63;7.93;;;;;;;;;;5087671;28;24392;-52
2022/04/20 15:01:04;;;;;;;8.80;8.00;;;;;;;;;;5087775;28;24500;-51
2022/04/20 15:03:29;;;;;;;8.30;7.60;;;;;;;;;;5087310;28;24943;-51
2022/04/20 15:05:55;;;;;;;8.02;7.32;;;;;;;;;;5087470;28;24379;-51